createdAt,value
2022-11-18T00:01:17.995Z,19.15
2022-11-18T00:03:46.385Z,19.63
2022-11-18T00:06:16.431Z,19.40
2022-11-18T00:08:43.726Z,19.52
2022-11-18T00:11:13.318Z,18.45
2022-11-18T00:14:01.068Z,20.27
2022-11-18T00:16:28.277Z,18.45
2022-11-18T00:18:56.012Z,20.25
2022-11-18T00:21:23.290Z,20.63
2022-11-18T00:23:51.035Z,20.38
2022-11-18T00:26:18.306Z,18.90
2022-11-18T00:28:45.701Z,19.45
2022-11-18T00:31:14.149Z,19.42
2022-11-18T00:33:41.597Z,19.58
2022-11-18T00:36:11.672Z,19.08
2022-11-18T00:38:40.278Z,18.83
2022-11-18T00:41:10.576Z,17.58
2022-11-18T00:43:38.634Z,17.23
2022-11-18T00:46:07.443Z,16.88
2022-11-18T00:48:34.738Z,18.50
2022-11-18T00:51:13.702Z,17.80
2022-11-18T00:53:41.524Z,18.42
2022-11-18T00:56:09.629Z,19.10
2022-11-18T00:58:37.417Z,17.42
2022-11-18T01:01:05.219Z,16.05
2022-11-18T01:03:32.816Z,15.63
2022-11-18T01:06:00.139Z,15.18
2022-11-18T01:08:27.454Z,15.43
2022-11-18T01:10:54.931Z,15.63
2022-11-18T01:13:24.070Z,14.73
2022-11-18T01:15:55.005Z,15.75
2022-11-18T01:18:26.883Z,16.40
2022-11-18T01:20:54.495Z,16.20
2022-11-18T01:23:21.780Z,17.48
2022-11-18T01:25:50.079Z,15.80
2022-11-18T01:28:23.276Z,16.88
2022-11-18T01:30:51.690Z,16.92
2022-11-18T01:33:18.746Z,16.45
2022-11-18T01:35:46.256Z,17.38
2022-11-18T01:38:14.833Z,18.92
2022-11-18T01:40:42.471Z,16.95
2022-11-18T01:43:14.499Z,17.63
2022-11-18T01:45:44.711Z,17.75
2022-11-18T01:48:32.331Z,18.48
2022-11-18T01:51:07.237Z,17.13
2022-11-18T01:53:41.238Z,17.00
2022-11-18T01:56:16.491Z,17.52
2022-11-18T01:58:56.763Z,16.80
2022-11-18T02:01:24.177Z,16.02
2022-11-18T02:03:52.593Z,16.23
2022-11-18T02:06:20.122Z,15.88
2022-11-18T02:08:47.928Z,17.02
2022-11-18T02:11:36.850Z,17.02
2022-11-18T02:14:07.847Z,17.15
2022-11-18T02:16:58.262Z,17.52
2022-11-18T02:19:36.796Z,16.92
2022-11-18T02:22:08.382Z,17.17
2022-11-18T02:24:42.640Z,17.38
2022-11-18T02:27:30.930Z,18.35
2022-11-18T02:30:08.811Z,19.25
2022-11-18T02:32:49.049Z,20.38
2022-11-18T02:35:18.865Z,18.75
2022-11-18T02:38:10.850Z,18.80
2022-11-18T02:40:44.912Z,18.80
2022-11-18T02:43:17.392Z,19.70
2022-11-18T02:45:50.146Z,20.02
2022-11-18T02:48:19.884Z,19.55
2022-11-18T02:50:50.370Z,20.15
2022-11-18T02:53:21.655Z,20.17
2022-11-18T02:55:51.050Z,21.50
2022-11-18T02:58:21.171Z,20.80
2022-11-18T03:00:56.456Z,20.10
2022-11-18T03:03:27.491Z,20.27
2022-11-18T03:06:10.808Z,20.05
2022-11-18T03:08:47.490Z,18.88
2022-11-18T03:11:20.336Z,19.42
2022-11-18T03:13:58.609Z,19.10
2022-11-18T03:16:32.960Z,18.65
2022-11-18T03:19:07.947Z,20.35
2022-11-18T03:21:46.286Z,20.42
2022-11-18T03:24:24.436Z,19.60
2022-11-18T03:26:58.045Z,19.38
2022-11-18T03:29:33.329Z,20.13
2022-11-18T03:32:13.152Z,19.40
2022-11-18T03:34:48.310Z,20.40
2022-11-18T03:37:18.543Z,20.98
2022-11-18T03:39:54.530Z,21.45
2022-11-18T03:42:28.960Z,21.48
2022-11-18T03:45:06.788Z,21.60
2022-11-18T03:47:42.211Z,20.38
2022-11-18T03:50:18.959Z,21.58
2022-11-18T03:52:49.166Z,20.92
2022-11-18T03:55:25.037Z,20.02
2022-11-18T03:58:15.930Z,21.58
2022-11-18T04:00:48.083Z,20.38
2022-11-18T04:03:16.082Z,21.48
2022-11-18T04:05:44.061Z,22.27
2022-11-18T04:08:17.520Z,21.38
2022-11-18T04:11:31.504Z,21.40
2022-11-18T04:14:00.179Z,21.27
2022-11-18T04:16:27.654Z,21.17
2022-11-18T04:18:55.203Z,21.25
2022-11-18T04:21:23.346Z,21.98
2022-11-18T04:23:51.107Z,20.75
2022-11-18T04:26:18.646Z,21.45
2022-11-18T04:28:46.492Z,20.98
2022-11-18T04:31:13.840Z,20.17
2022-11-18T04:33:41.243Z,21.83
2022-11-18T04:36:09.983Z,21.38
2022-11-18T04:38:37.589Z,22.85
2022-11-18T04:41:04.934Z,22.48
2022-11-18T04:43:34.093Z,24.00
2022-11-18T04:46:01.322Z,22.23
2022-11-18T04:48:28.974Z,22.65
2022-11-18T04:50:58.876Z,23.63
2022-11-18T04:53:26.195Z,23.45
2022-11-18T04:55:53.541Z,22.75
2022-11-18T04:58:20.880Z,22.10
2022-11-18T05:00:51.435Z,22.60
2022-11-18T05:03:19.167Z,22.83
2022-11-18T05:05:47.730Z,23.00
2022-11-18T05:08:15.244Z,25.30
2022-11-18T05:10:42.540Z,22.60
2022-11-18T05:13:10.218Z,21.67
2022-11-18T05:15:39.392Z,22.20
2022-11-18T05:18:18.992Z,22.10
2022-11-18T05:20:47.196Z,22.98
2022-11-18T05:23:15.553Z,22.52
2022-11-18T05:25:44.165Z,22.90
2022-11-18T05:28:13.431Z,21.27
2022-11-18T05:30:41.789Z,23.30
2022-11-18T05:33:11.597Z,22.02
2022-11-18T05:35:39.938Z,21.35
2022-11-18T05:38:09.669Z,21.98
2022-11-18T05:40:41.315Z,21.95
2022-11-18T05:43:19.306Z,21.17
2022-11-18T05:45:50.872Z,21.70
2022-11-18T05:48:20.910Z,20.92
2022-11-18T05:50:53.717Z,21.90
2022-11-18T05:53:27.052Z,16.30
2022-11-18T05:56:21.122Z,21.77
2022-11-18T05:58:50.758Z,23.02
2022-11-18T06:01:34.559Z,24.70
2022-11-18T06:04:06.640Z,22.13
2022-11-18T06:06:36.963Z,25.45
2022-11-18T06:09:07.515Z,25.02
2022-11-18T06:11:42.825Z,22.50
2022-11-18T06:14:18.148Z,23.88
2022-11-18T06:16:52.857Z,25.48
2022-11-18T06:19:22.611Z,25.42
2022-11-18T06:21:52.234Z,24.52
2022-11-18T06:24:22.158Z,24.00
2022-11-18T06:26:53.571Z,23.08
2022-11-18T06:29:27.498Z,24.35
2022-11-18T06:31:57.691Z,24.67
2022-11-18T06:34:27.556Z,24.60
2022-11-18T06:36:57.399Z,24.48
2022-11-18T06:39:27.305Z,25.50
2022-11-18T06:41:56.968Z,23.83
2022-11-18T06:44:26.007Z,24.23
2022-11-18T06:46:56.906Z,23.23
2022-11-18T06:49:28.884Z,24.25
2022-11-18T06:52:00.046Z,24.35
2022-11-18T06:54:29.070Z,24.35
2022-11-18T06:56:57.188Z,24.00
2022-11-18T06:59:25.583Z,23.00
2022-11-18T07:01:54.308Z,25.05
2022-11-18T07:04:23.272Z,24.15
2022-11-18T07:06:52.370Z,23.67
2022-11-18T07:09:20.974Z,23.35
2022-11-18T07:11:49.853Z,24.95
2022-11-18T07:14:18.597Z,24.70
2022-11-18T07:16:47.037Z,23.02
2022-11-18T07:19:16.203Z,24.38
2022-11-18T07:21:45.211Z,24.00
2022-11-18T07:24:15.851Z,24.23
2022-11-18T07:26:44.508Z,24.67
2022-11-18T07:29:12.722Z,24.38
2022-11-18T07:31:41.326Z,23.70
2022-11-18T07:34:10.038Z,24.40
2022-11-18T07:36:38.972Z,24.77
2022-11-18T07:39:11.592Z,23.95
2022-11-18T07:41:40.863Z,23.45
2022-11-18T07:44:11.844Z,29.15
2022-11-18T07:46:39.369Z,26.27
2022-11-18T07:49:09.118Z,26.30
2022-11-18T07:51:39.305Z,21.90
2022-11-18T07:54:09.752Z,20.05
2022-11-18T07:56:36.806Z,20.10
2022-11-18T07:59:04.723Z,20.08
2022-11-18T08:01:32.302Z,19.98
2022-11-18T08:04:06.093Z,20.45
2022-11-18T08:06:35.000Z,20.92
2022-11-18T08:09:03.487Z,18.92
2022-11-18T08:11:30.591Z,20.17
2022-11-18T08:13:57.751Z,18.02
2022-11-18T08:16:26.526Z,19.67
2022-11-18T08:18:55.641Z,19.17
2022-11-18T08:21:23.885Z,19.77
2022-11-18T08:23:53.474Z,20.92
2022-11-18T08:26:21.219Z,20.55
2022-11-18T08:28:49.074Z,21.48
2022-11-18T08:31:18.939Z,19.83
2022-11-18T08:33:46.718Z,20.42
2022-11-18T08:36:17.557Z,20.40
2022-11-18T08:38:45.474Z,19.48
2022-11-18T08:41:14.787Z,20.73
2022-11-18T08:43:42.675Z,21.05
2022-11-18T08:46:10.022Z,19.38
2022-11-18T08:48:37.219Z,20.13
2022-11-18T08:51:05.004Z,19.95
2022-11-18T08:53:32.936Z,20.17
2022-11-18T08:56:01.555Z,18.80
2022-11-18T08:58:29.276Z,18.98
2022-11-18T09:00:56.390Z,19.77
2022-11-18T09:03:24.222Z,19.75
2022-11-18T09:05:51.463Z,19.20
2022-11-18T09:08:18.523Z,17.25
2022-11-18T09:10:45.624Z,16.80
2022-11-18T09:13:40.394Z,17.20
2022-11-18T09:16:00.681Z,17.10
2022-11-18T09:18:27.860Z,17.65
2022-11-18T09:20:57.365Z,17.42
2022-11-18T09:23:25.161Z,17.73
2022-11-18T09:26:00.946Z,17.02
2022-11-18T09:28:28.074Z,16.50
2022-11-18T09:30:55.461Z,17.42
2022-11-18T09:33:23.395Z,16.42
2022-11-18T09:35:50.529Z,17.10
2022-11-18T09:38:17.710Z,15.80
2022-11-18T09:40:51.076Z,16.35
2022-11-18T09:43:29.783Z,15.93
2022-11-18T09:46:03.459Z,16.40
2022-11-18T09:48:51.356Z,15.85
2022-11-18T09:51:18.443Z,15.35
2022-11-18T09:53:46.385Z,16.17
2022-11-18T09:56:16.577Z,16.25
2022-11-18T09:58:45.214Z,17.55
2022-11-18T10:01:14.935Z,17.27
2022-11-18T10:03:42.285Z,15.75
2022-11-18T10:06:10.624Z,16.33
2022-11-18T10:08:49.036Z,15.98
2022-11-18T10:11:19.933Z,15.73
2022-11-18T10:13:54.649Z,14.52
2022-11-18T10:16:43.795Z,13.93
2022-11-18T10:19:12.381Z,15.32
2022-11-18T10:22:02.876Z,14.65
2022-11-18T10:24:37.918Z,15.38
2022-11-18T10:27:11.567Z,15.65
2022-11-18T10:29:39.079Z,15.43
2022-11-18T10:32:12.049Z,14.70
2022-11-18T10:34:56.714Z,14.77
2022-11-18T10:37:45.723Z,15.00
2022-11-18T10:40:25.908Z,15.48
2022-11-18T10:42:53.345Z,13.50
2022-11-18T10:45:21.656Z,14.43
2022-11-18T10:48:10.626Z,13.73
2022-11-18T10:50:40.895Z,14.57
2022-11-18T10:53:32.073Z,13.50
2022-11-18T10:56:01.432Z,13.60
2022-11-18T10:58:32.085Z,12.48
2022-11-18T11:01:06.745Z,12.65
2022-11-18T11:06:34.340Z,13.15
2022-11-18T11:09:03.984Z,12.82
2022-11-18T11:11:35.396Z,15.27
2022-11-18T11:14:13.545Z,13.00
2022-11-18T11:17:01.952Z,13.10
2022-11-18T11:19:39.943Z,13.73
2022-11-18T11:22:15.924Z,14.25
2022-11-18T11:24:43.383Z,12.88
2022-11-18T11:30:22.225Z,12.30
2022-11-18T11:33:20.850Z,12.70
2022-11-18T11:36:08.929Z,13.13
2022-11-18T11:38:47.200Z,13.32
2022-11-18T11:41:31.424Z,14.48
2022-11-18T11:44:22.303Z,12.63
2022-11-18T11:47:13.848Z,14.05
2022-11-18T11:50:00.810Z,13.27
2022-11-18T11:52:47.770Z,12.93
2022-11-18T11:55:38.978Z,14.57
2022-11-18T11:58:18.069Z,16.10
2022-11-18T12:00:58.037Z,15.82
2022-11-18T12:03:51.950Z,15.88
2022-11-18T12:06:19.930Z,16.23
2022-11-18T12:09:10.091Z,16.25
2022-11-18T12:11:47.072Z,16.92
2022-11-18T12:14:21.793Z,16.45
2022-11-18T12:16:57.187Z,39.95
2022-11-18T12:19:24.738Z,18.35
2022-11-18T12:21:54.666Z,19.17
2022-11-18T12:24:37.913Z,18.77
2022-11-18T12:27:13.295Z,17.15
2022-11-18T12:29:44.775Z,16.67
2022-11-18T12:32:47.030Z,15.77
2022-11-18T12:35:14.233Z,14.13
2022-11-18T12:37:58.775Z,14.18
2022-11-18T12:40:49.045Z,14.75
2022-11-18T12:43:46.708Z,13.43
2022-11-18T12:46:34.777Z,10.65
2022-11-18T12:49:22.245Z,13.77
2022-11-18T12:51:51.277Z,13.25
2022-11-18T12:54:27.001Z,12.75
2022-11-18T12:56:58.055Z,13.38
2022-11-18T12:59:36.316Z,14.43
2022-11-18T13:02:13.160Z,12.45
2022-11-18T13:04:45.864Z,12.55
2022-11-18T13:07:40.792Z,9.43
2022-11-18T13:10:23.609Z,12.77
2022-11-18T13:12:52.508Z,12.00
2022-11-18T13:15:39.932Z,12.75
2022-11-18T13:18:15.097Z,11.77
2022-11-18T13:20:43.694Z,12.45
2022-11-18T13:23:30.636Z,12.45
2022-11-18T13:26:31.066Z,14.13
2022-11-18T13:29:18.450Z,13.57
2022-11-18T13:32:03.417Z,12.95
2022-11-18T13:34:31.984Z,13.65
2022-11-18T13:37:00.700Z,13.93
2022-11-18T13:39:32.078Z,13.95
2022-11-18T13:42:00.281Z,14.52
2022-11-18T13:44:30.229Z,14.38
2022-11-18T13:47:06.989Z,14.18
2022-11-18T13:49:50.072Z,14.27
2022-11-18T13:52:33.864Z,13.20
2022-11-18T13:55:03.465Z,13.82
2022-11-18T13:57:30.991Z,14.75
2022-11-18T14:00:03.323Z,14.55
2022-11-18T14:02:32.808Z,15.13
2022-11-18T14:05:00.884Z,14.55
2022-11-18T14:07:30.446Z,14.77
2022-11-18T14:10:04.413Z,15.70
2022-11-18T14:12:34.500Z,10.70
2022-11-18T14:15:32.672Z,14.40
2022-11-18T14:18:01.646Z,14.48
2022-11-18T14:20:30.958Z,14.40
2022-11-18T14:23:00.933Z,14.32
2022-11-18T14:25:34.284Z,15.57
2022-11-18T14:28:18.399Z,17.60
2022-11-18T14:31:05.455Z,15.40
2022-11-18T14:33:35.871Z,15.55
2022-11-18T14:36:15.331Z,17.42
2022-11-18T14:41:49.685Z,16.40
2022-11-18T14:44:19.244Z,17.02
2022-11-18T14:47:00.181Z,15.55
2022-11-18T14:49:30.907Z,16.17
2022-11-18T14:51:59.012Z,15.05
2022-11-18T14:57:17.205Z,15.38
2022-11-18T14:59:44.747Z,14.68
2022-11-18T15:00:27.276Z,14.27
2022-11-18T15:02:16.141Z,14.90
2022-11-18T15:04:43.650Z,16.00
2022-11-18T15:07:18.542Z,15.75
2022-11-18T15:09:50.893Z,14.55
2022-11-18T15:12:18.188Z,16.08
2022-11-18T15:14:45.385Z,15.07
2022-11-18T15:17:13.898Z,15.60
2022-11-18T15:19:41.840Z,16.25
2022-11-18T15:22:09.797Z,16.27
2022-11-18T15:24:37.304Z,16.77
2022-11-18T15:27:05.694Z,16.95
2022-11-18T15:29:34.198Z,15.40
2022-11-18T15:32:05.391Z,17.17
2022-11-18T15:34:32.949Z,17.15
2022-11-18T15:37:00.335Z,17.45
2022-11-18T15:39:27.827Z,16.50
2022-11-18T15:41:55.120Z,17.55
2022-11-18T15:44:22.696Z,17.80
2022-11-18T15:46:50.518Z,16.77
2022-11-18T15:49:18.066Z,18.27
2022-11-18T15:51:45.395Z,16.90
2022-11-18T15:54:12.580Z,18.48
2022-11-18T15:56:40.051Z,17.17
2022-11-18T15:59:10.942Z,17.85
2022-11-18T16:01:40.778Z,16.77
2022-11-18T16:04:10.802Z,18.00
2022-11-18T16:06:38.584Z,16.85
2022-11-18T16:09:06.966Z,17.77
2022-11-18T16:11:54.005Z,16.20
2022-11-18T16:14:23.099Z,16.33
2022-11-18T16:16:51.970Z,16.42
2022-11-18T16:19:21.683Z,17.15
2022-11-18T16:21:51.524Z,16.52
2022-11-18T16:24:21.967Z,17.30
2022-11-18T16:26:49.798Z,17.00
2022-11-18T16:29:18.792Z,17.92
2022-11-18T16:31:51.022Z,17.30
2022-11-18T16:34:22.165Z,18.45
2022-11-18T16:36:53.191Z,17.65
2022-11-18T16:39:25.115Z,17.27
2022-11-18T16:41:55.039Z,16.85
2022-11-18T16:44:23.585Z,19.50
2022-11-18T16:46:53.215Z,19.13
2022-11-18T16:49:23.348Z,17.85
2022-11-18T16:51:52.823Z,19.55
2022-11-18T16:54:23.524Z,18.38
2022-11-18T16:56:51.556Z,19.40
2022-11-18T16:59:22.236Z,19.13
2022-11-18T17:01:50.782Z,19.88
2022-11-18T17:04:19.326Z,19.38
2022-11-18T17:06:47.270Z,19.48
2022-11-18T17:09:17.307Z,18.45
2022-11-18T17:11:44.994Z,21.55
2022-11-18T17:14:12.636Z,22.00
2022-11-18T17:16:40.333Z,20.55
2022-11-18T17:19:17.412Z,22.00
2022-11-18T17:21:45.619Z,22.10
2022-11-18T17:24:16.075Z,22.77
2022-11-18T17:26:44.055Z,24.17
2022-11-18T17:29:12.195Z,24.67
2022-11-18T17:31:40.792Z,25.83
2022-11-18T17:34:12.132Z,23.90
2022-11-18T17:36:39.877Z,24.17
2022-11-18T17:39:07.542Z,25.55
2022-11-18T17:41:54.836Z,25.77
2022-11-18T17:44:22.202Z,23.05
2022-11-18T17:46:49.414Z,23.88
2022-11-18T17:49:18.259Z,22.17
2022-11-18T17:51:47.038Z,22.00
2022-11-18T17:54:14.500Z,21.27
2022-11-18T17:56:42.065Z,21.33
2022-11-18T17:59:09.172Z,19.92
2022-11-18T18:01:36.547Z,20.88
2022-11-18T18:04:04.022Z,20.77
2022-11-18T18:06:31.384Z,20.42
2022-11-18T18:08:59.060Z,20.02
2022-11-18T18:11:27.595Z,21.73
2022-11-18T18:14:15.105Z,20.77
2022-11-18T18:16:44.455Z,19.80
2022-11-18T18:19:13.769Z,20.45
2022-11-18T18:21:40.916Z,22.38
2022-11-18T18:24:08.444Z,22.30
2022-11-18T18:26:36.268Z,21.55
2022-11-18T18:29:04.106Z,21.40
2022-11-18T18:31:34.315Z,20.70
2022-11-18T18:34:01.947Z,21.50
2022-11-18T18:36:29.503Z,20.17
2022-11-18T18:38:58.532Z,20.63
2022-11-18T18:41:25.617Z,19.48
2022-11-18T18:43:52.902Z,20.92
2022-11-18T18:46:32.117Z,20.85
2022-11-18T18:49:20.511Z,20.77
2022-11-18T18:51:50.241Z,19.17
2022-11-18T18:54:19.369Z,21.55
2022-11-18T18:56:47.006Z,20.67
2022-11-18T18:59:14.048Z,21.15
2022-11-18T19:01:41.526Z,22.48
2022-11-18T19:04:13.230Z,20.30
2022-11-18T19:07:00.543Z,20.17
2022-11-18T19:09:28.568Z,21.02
2022-11-18T19:12:15.865Z,22.48
2022-11-18T19:14:43.008Z,20.73
2022-11-18T19:17:12.351Z,22.02
2022-11-18T19:20:02.533Z,22.67
2022-11-18T19:22:32.645Z,23.58
2022-11-18T19:25:01.654Z,24.23
2022-11-18T19:27:30.121Z,24.70
2022-11-18T19:29:57.732Z,24.27
2022-11-18T19:32:25.210Z,25.90
2022-11-18T19:34:52.566Z,25.15
2022-11-18T19:37:19.934Z,24.42
2022-11-18T19:39:47.405Z,24.58
2022-11-18T19:42:14.902Z,25.38
2022-11-18T19:44:42.261Z,24.40
2022-11-18T19:47:09.851Z,22.80
2022-11-18T19:49:37.134Z,24.15
2022-11-18T19:52:04.971Z,24.10
2022-11-18T19:54:32.608Z,26.02
2022-11-18T19:57:01.262Z,27.58
2022-11-18T19:59:31.486Z,28.17
2022-11-18T20:02:00.037Z,27.08
2022-11-18T20:04:27.423Z,26.38
2022-11-18T20:06:55.095Z,27.85
2022-11-18T20:09:22.420Z,25.20
2022-11-18T20:11:49.751Z,23.85
2022-11-18T20:14:17.644Z,23.08
2022-11-18T20:16:45.077Z,22.85
2022-11-18T20:19:13.850Z,21.73
2022-11-18T20:21:44.130Z,22.60
2022-11-18T20:24:16.462Z,22.23
2022-11-18T20:26:44.348Z,21.42
2022-11-18T20:29:11.848Z,22.67
2022-11-18T20:31:39.363Z,23.17
2022-11-18T20:34:06.517Z,23.95
2022-11-18T20:36:35.896Z,23.40
2022-11-18T20:39:07.487Z,22.05
2022-11-18T20:41:36.476Z,21.33
2022-11-18T20:44:04.545Z,21.50
2022-11-18T20:46:34.367Z,21.98
2022-11-18T20:49:01.942Z,20.67
2022-11-18T20:51:29.605Z,20.40
2022-11-18T20:53:58.561Z,21.30
2022-11-18T20:56:27.264Z,20.77
2022-11-18T20:58:56.138Z,20.80
2022-11-18T21:01:27.574Z,21.75
2022-11-18T21:03:57.362Z,21.23
2022-11-18T21:06:27.559Z,23.33
2022-11-18T21:08:58.155Z,21.92
2022-11-18T21:11:26.483Z,20.40
2022-11-18T21:14:17.214Z,19.92
2022-11-18T21:16:47.808Z,21.45
2022-11-18T21:19:15.372Z,21.17
2022-11-18T21:21:45.970Z,21.85
2022-11-18T21:24:15.601Z,21.08
2022-11-18T21:26:43.791Z,20.25
2022-11-18T21:29:12.471Z,22.42
2022-11-18T21:31:40.183Z,21.35
2022-11-18T21:34:08.343Z,21.85
2022-11-18T21:36:38.906Z,21.52
2022-11-18T21:41:37.871Z,20.17
2022-11-18T21:44:07.970Z,19.75
2022-11-18T21:46:36.371Z,20.52
2022-11-18T21:49:04.168Z,20.30
2022-11-18T21:51:32.247Z,20.05
2022-11-18T21:54:00.053Z,20.58
2022-11-18T21:56:30.766Z,19.85
2022-11-18T21:58:59.684Z,21.90
2022-11-18T22:01:29.373Z,20.48
2022-11-18T22:03:58.884Z,19.35
2022-11-18T22:06:29.872Z,20.80
2022-11-18T22:08:57.601Z,20.05
2022-11-18T22:11:25.805Z,21.40
2022-11-18T22:13:53.401Z,19.65
2022-11-18T22:16:22.826Z,19.90
2022-11-18T22:18:57.321Z,19.58
2022-11-18T22:21:26.639Z,18.55
2022-11-18T22:23:59.793Z,19.17
2022-11-18T22:26:27.171Z,19.52
2022-11-18T22:28:56.154Z,19.90
2022-11-18T22:31:25.358Z,19.65
2022-11-18T22:33:53.372Z,19.25
2022-11-18T22:36:22.731Z,18.25
2022-11-18T22:38:50.327Z,17.20
2022-11-18T22:41:41.208Z,18.05
2022-11-18T22:44:09.801Z,18.25
2022-11-18T22:46:38.924Z,18.48
2022-11-18T22:49:07.698Z,19.20
2022-11-18T22:51:36.130Z,17.73
2022-11-18T22:54:36.603Z,18.30
2022-11-18T22:56:53.082Z,18.63
2022-11-18T22:59:20.573Z,19.02
2022-11-18T23:01:47.883Z,19.73
2022-11-18T23:04:14.926Z,20.27
2022-11-18T23:06:42.074Z,19.80
2022-11-18T23:09:10.142Z,18.80
2022-11-18T23:11:57.304Z,19.92
2022-11-18T23:14:24.499Z,19.52
2022-11-18T23:16:51.708Z,20.08
2022-11-18T23:19:19.603Z,18.92
2022-11-18T23:21:47.818Z,19.23
2022-11-18T23:24:17.356Z,20.13
2022-11-18T23:26:45.127Z,20.60
2022-11-18T23:29:14.095Z,19.95
2022-11-18T23:31:43.682Z,19.80
2022-11-18T23:34:12.829Z,20.05
2022-11-18T23:36:40.505Z,21.20
2022-11-18T23:39:08.078Z,21.55
2022-11-18T23:41:35.320Z,21.20
2022-11-18T23:44:02.597Z,21.35
2022-11-18T23:46:30.110Z,21.25
2022-11-18T23:48:57.265Z,20.75
2022-11-18T23:51:25.480Z,21.25
2022-11-18T23:53:55.299Z,19.02
2022-11-18T23:56:25.173Z,19.10
2022-11-18T23:58:53.634Z,19.60
